Rossville, Pennsylvania
Current Conditions -  °F | °C
As of 10:53 AM on Saturday 20 Dec 2014 (Local Time) from KTHV Reporting Station
Clear Clear  
Wind Chill: 26°   Ceiling: Unl
Heat Index: 32°   Visibility: 10mi
Dew Point: 21°   Wind: 6mph
Humidity: 64%   Direction: 30°NNE
Pressure: 30.29"   Gusts: NA
Location:  40.06°N, 76.91°W
Report Text: KTHV 201553Z AUTO 03005KT 10SM CLR 00/M06 A3029 RMK AO2 SLP265 T00001061
Loading
Personal Weather Stations






























Interactive Weather Map New forecast layout! Learn more

10-Day Weather Forecast

Advertisements
Track Severe Weather on mobile